Saturday, February 13, 2016, 12:07 PM EST

KPOU, Poughkeepsie Dutchess Cty

Location: Wappingers Falls, NY, United States Lat: 41.633
Local Time: 12:07 PM EST (17:07 GMT) Lon: -73.883
Time Zone: US/Eastern Elev: 167 ft

Show me the last for .
Show Decoded

2016-02-13 11:53 METAR KPOU 131653Z 31019G30KT 10SM FEW065 M07/M24 A3003 RMK AO2 PK WND
                 32030/1644 SLP167 T10721239 =
2016-02-13 10:53 METAR KPOU 131553Z 27021G29KT 10SM CLR M07/M23 A3002 RMK AO2 PK WND 28031/1522
                 SNE02 SLP164 P0000 T10721228 =
2016-02-13 09:53 METAR KPOU 131453Z COR 31012G27KT 10SM SCT041 BKN048 OVC055 M08/M16 A3000 =
2016-02-13 08:53 METAR KPOU 131353Z 29013G17KT 10SM BKN060 M07/M19 A2997 RMK AO2 SLP148 T10671189
                 =
2016-02-13 07:53 METAR KPOU 131253Z 34009KT 10SM BKN050 M06/M17 A2994 RMK AO2 SLP136 T10561172 =
2016-02-13 06:53 METAR KPOU 131153Z 31011G18KT 10SM FEW048 OVC065 M07/M13 A2990 RMK AO2 SLP125
                 T10671133 11061 21078 53022 =
2016-02-13 05:53 METAR KPOU 131053Z AUTO 00000KT 10SM BKN050 M07/M11 A2987 RMK AO2 SLP113
                 T10721111 =
2016-02-13 04:53 METAR KPOU 130953Z AUTO 25004KT 10SM BKN090 M07/M11 A2985 RMK AO2 SLP108
                 T10671111 =
2016-02-13 03:53 METAR KPOU 130853Z AUTO 23008KT 10SM SCT100 M07/M11 A2984 RMK AO2 SLP103
                 T10671111 56013 =
2016-02-13 02:53 METAR KPOU 130753Z AUTO 25005KT 10SM SCT120 M07/M12 A2985 RMK AO2 SLP105
                 T10721117 =
2016-02-13 01:53 METAR KPOU 130653Z AUTO 25006KT 10SM SCT080 M07/M12 A2986 RMK AO2 SLP110
                 T10671117 =
2016-02-13 00:53 METAR KPOU 130553Z AUTO 23008KT 10SM OVC065 M06/M12 A2988 RMK AO2 SLP116
                 T10561122 11044 21061 58015 =
2016-02-12 23:53 METAR KPOU 130453Z AUTO 22006KT 10SM OVC065 M06/M13 A2990 RMK AO2 SLP124
                 T10561133 410221128 =
2016-02-12 22:53 METAR KPOU 130353Z AUTO 24008KT 10SM BKN070 OVC085 M06/M15 A2991 RMK AO2 SLP128
                 T10561150 =
2016-02-12 21:53 METAR KPOU 130253Z AUTO 23007KT 10SM OVC095 M05/M16 A2992 RMK AO2 SLP131
                 T10501156 56019 =
2016-02-12 20:53 METAR KPOU 130153Z AUTO 22007KT 10SM OVC100 M05/M16 A2993 RMK AO2 SLP135
                 T10501161 =
2016-02-12 19:53 METAR KPOU 130053Z AUTO 23003KT 10SM FEW110 M05/M13 A2996 RMK AO2 SLP144
                 T10501133 =
2016-02-12 18:53 METAR KPOU 122353Z AUTO 21005KT 10SM FEW055 BKN110 M04/M14 A2998 RMK AO2 SLP150
                 T10441144 11022 21044 56009 =
2016-02-12 17:53 METAR KPOU 122253Z AUTO 24010KT 10SM BKN046 OVC070 M04/M15 A2999 RMK AO2 SLP153
                 T10391150 =
2016-02-12 16:53 METAR KPOU 122153Z AUTO 25004KT 10SM BKN055 OVC070 M03/M17 A2999 RMK AO2 SLP154
                 T10331172 =
2016-02-12 15:53 METAR KPOU 122053Z AUTO 20005KT 10SM OVC090 M03/M18 A3000 RMK AO2 SLP159
                 T10281178 56030 =
2016-02-12 14:53 METAR KPOU 121953Z 24007KT 10SM OVC100 M03/M18 A3002 RMK AO2 SLP166 T10281183 =
2016-02-12 13:53 METAR KPOU 121853Z 22007KT 10SM CLR M03/M18 A3005 RMK AO2 SLP175 T10281183 =
2016-02-12 12:53 METAR KPOU 121753Z VRB04KT 10SM CLR M03/M18 A3009 RMK AO2 SLP189 T10331178 11033
                 21100 58038 =

Support USWX by starting your Amazon purchase here.